sensor_id;sensor_type;location;lat;lon;timestamp;pressure;altitude;pressure_sealevel;temperature;humidity
43683;BME280;29285;52.128;21.060;2024-01-30T00:02:36;102117.27;;;2.90;100.00
43683;BME280;29285;52.128;21.060;2024-01-30T00:07:37;102115.64;;;2.80;100.00
43683;BME280;29285;52.128;21.060;2024-01-30T00:12:38;102109.25;;;2.91;100.00
43683;BME280;29285;52.128;21.060;2024-01-30T00:17:39;102103.21;;;2.86;100.00
43683;BME280;29285;52.128;21.060;2024-01-30T00:22:40;102099.45;;;2.87;100.00
43683;BME280;29285;52.128;21.060;2024-01-30T00:27:41;102087.42;;;2.89;100.00
43683;BME280;29285;52.128;21.060;2024-01-30T00:32:42;102082.89;;;2.88;100.00
43683;BME280;29285;52.128;21.060;2024-01-30T00:37:43;102081.38;;;2.73;100.00
43683;BME280;29285;52.128;21.060;2024-01-30T00:42:44;102076.95;;;2.66;100.00
43683;BME280;29285;52.128;21.060;2024-01-30T00:47:45;102080.77;;;2.55;100.00
43683;BME280;29285;52.128;21.060;2024-01-30T00:52:46;102079.17;;;2.46;100.00
43683;BME280;29285;52.128;21.060;2024-01-30T00:57:47;102066.65;;;2.34;100.00
43683;BME280;29285;52.128;21.060;2024-01-30T01:02:49;102071.45;;;2.31;100.00
43683;BME280;29285;52.128;21.060;2024-01-30T01:07:50;102068.67;;;2.34;100.00
43683;BME280;29285;52.128;21.060;2024-01-30T01:12:51;102070.44;;;2.39;100.00
43683;BME280;29285;52.128;21.060;2024-01-30T01:17:52;102069.55;;;2.42;100.00
43683;BME280;29285;52.128;21.060;2024-01-30T01:22:53;102068.35;;;2.53;100.00
43683;BME280;29285;52.128;21.060;2024-01-30T01:27:53;102069.67;;;2.60;100.00
43683;BME280;29285;52.128;21.060;2024-01-30T01:32:55;102070.86;;;2.63;100.00
43683;BME280;29285;52.128;21.060;2024-01-30T01:37:57;102071.44;;;2.65;100.00
43683;BME280;29285;52.128;21.060;2024-01-30T01:43:03;102071.30;;;2.62;100.00
43683;BME280;29285;52.128;21.060;2024-01-30T01:48:04;102063.20;;;2.61;100.00
43683;BME280;29285;52.128;21.060;2024-01-30T01:53:07;102057.75;;;2.54;100.00
43683;BME280;29285;52.128;21.060;2024-01-30T01:58:09;102059.55;;;2.48;100.00
43683;BME280;29285;52.128;21.060;2024-01-30T02:03:10;102063.45;;;2.43;100.00
43683;BME280;29285;52.128;21.060;2024-01-30T02:08:14;102062.98;;;2.41;100.00
43683;BME280;29285;52.128;21.060;2024-01-30T02:13:15;102057.08;;;2.42;100.00
43683;BME280;29285;52.128;21.060;2024-01-30T02:18:16;102045.88;;;2.45;100.00
43683;BME280;29285;52.128;21.060;2024-01-30T02:23:19;102040.55;;;2.41;100.00
43683;BME280;29285;52.128;21.060;2024-01-30T02:28:20;102045.61;;;2.35;100.00
43683;BME280;29285;52.128;21.060;2024-01-30T02:33:21;102043.08;;;2.28;100.00
43683;BME280;29285;52.128;21.060;2024-01-30T02:38:23;102037.29;;;2.17;100.00
43683;BME280;29285;52.128;21.060;2024-01-30T02:43:24;102044.98;;;2.03;100.00
43683;BME280;29285;52.128;21.060;2024-01-30T02:48:25;102046.58;;;2.00;100.00
43683;BME280;29285;52.128;21.060;2024-01-30T02:53:26;102043.98;;;2.00;100.00
43683;BME280;29285;52.128;21.060;2024-01-30T02:58:26;102041.91;;;2.06;100.00
43683;BME280;29285;52.128;21.060;2024-01-30T03:03:28;102040.02;;;2.14;100.00
43683;BME280;29285;52.128;21.060;2024-01-30T03:08:28;102031.98;;;2.10;100.00
43683;BME280;29285;52.128;21.060;2024-01-30T03:13:29;102034.96;;;2.15;100.00
43683;BME280;29285;52.128;21.060;2024-01-30T03:18:31;102035.23;;;2.18;100.00
43683;BME280;29285;52.128;21.060;2024-01-30T03:23:32;102037.65;;;2.14;100.00
43683;BME280;29285;52.128;21.060;2024-01-30T03:28:33;102036.42;;;2.14;100.00
43683;BME280;29285;52.128;21.060;2024-01-30T03:33:34;102040.00;;;2.13;100.00
43683;BME280;29285;52.128;21.060;2024-01-30T03:38:35;102037.88;;;2.12;100.00
43683;BME280;29285;52.128;21.060;2024-01-30T03:43:36;102032.89;;;2.04;100.00
43683;BME280;29285;52.128;21.060;2024-01-30T03:48:38;102036.77;;;1.95;100.00
43683;BME280;29285;52.128;21.060;2024-01-30T03:53:40;102038.80;;;1.94;100.00
43683;BME280;29285;52.128;21.060;2024-01-30T03:58:42;102038.98;;;1.98;100.00
43683;BME280;29285;52.128;21.060;2024-01-30T04:03:43;102033.75;;;2.04;100.00
43683;BME280;29285;52.128;21.060;2024-01-30T04:08:45;102036.18;;;2.08;100.00
43683;BME280;29285;52.128;21.060;2024-01-30T04:13:46;102033.30;;;2.09;100.00
43683;BME280;29285;52.128;21.060;2024-01-30T04:18:49;102026.03;;;2.07;100.00
43683;BME280;29285;52.128;21.060;2024-01-30T04:23:53;102026.00;;;1.96;100.00
43683;BME280;29285;52.128;21.060;2024-01-30T04:28:54;102033.08;;;1.78;100.00
43683;BME280;29285;52.128;21.060;2024-01-30T04:33:55;102033.58;;;1.70;100.00
43683;BME280;29285;52.128;21.060;2024-01-30T04:38:56;102035.98;;;1.70;100.00
43683;BME280;29285;52.128;21.060;2024-01-30T04:43:57;102028.77;;;1.70;100.00
43683;BME280;29285;52.128;21.060;2024-01-30T04:48:58;102030.98;;;1.77;100.00
43683;BME280;29285;52.128;21.060;2024-01-30T04:53:59;102027.88;;;1.84;100.00
43683;BME280;29285;52.128;21.060;2024-01-30T04:59:02;102029.16;;;1.86;100.00
43683;BME280;29285;52.128;21.060;2024-01-30T05:04:03;102029.27;;;1.88;100.00
43683;BME280;29285;52.128;21.060;2024-01-30T05:09:04;102027.95;;;1.85;100.00
43683;BME280;29285;52.128;21.060;2024-01-30T05:14:06;102029.13;;;1.85;100.00
43683;BME280;29285;52.128;21.060;2024-01-30T05:19:08;102024.09;;;1.73;100.00
43683;BME280;29285;52.128;21.060;2024-01-30T05:24:09;102024.91;;;1.61;100.00
43683;BME280;29285;52.128;21.060;2024-01-30T05:29:10;102018.33;;;1.59;100.00
43683;BME280;29285;52.128;21.060;2024-01-30T05:34:11;102016.49;;;1.46;100.00
43683;BME280;29285;52.128;21.060;2024-01-30T05:39:12;102014.42;;;1.38;100.00
43683;BME280;29285;52.128;21.060;2024-01-30T05:44:14;102017.46;;;1.27;100.00
43683;BME280;29285;52.128;21.060;2024-01-30T05:49:15;102019.42;;;1.21;100.00
43683;BME280;29285;52.128;21.060;2024-01-30T05:54:16;102020.33;;;1.15;100.00
43683;BME280;29285;52.128;21.060;2024-01-30T05:59:16;102025.65;;;1.09;100.00
43683;BME280;29285;52.128;21.060;2024-01-30T06:04:18;102032.61;;;1.15;100.00
43683;BME280;29285;52.128;21.060;2024-01-30T06:09:19;102034.13;;;1.18;100.00
43683;BME280;29285;52.128;21.060;2024-01-30T06:14:20;102033.60;;;1.18;100.00
43683;BME280;29285;52.128;21.060;2024-01-30T06:19:21;102029.84;;;1.17;100.00
43683;BME280;29285;52.128;21.060;2024-01-30T06:24:22;102026.16;;;1.19;100.00
43683;BME280;29285;52.128;21.060;2024-01-30T06:29:23;102025.94;;;1.15;100.00
43683;BME280;29285;52.128;21.060;2024-01-30T06:34:25;102022.64;;;1.17;100.00
43683;BME280;29285;52.128;21.060;2024-01-30T06:39:27;102018.23;;;1.18;100.00
43683;BME280;29285;52.128;21.060;2024-01-30T06:44:28;102025.44;;;1.08;100.00
43683;BME280;29285;52.128;21.060;2024-01-30T06:49:29;102026.43;;;0.94;100.00
43683;BME280;29285;52.128;21.060;2024-01-30T06:54:30;102023.93;;;0.88;100.00
43683;BME280;29285;52.128;21.060;2024-01-30T06:59:31;102025.52;;;0.85;100.00
43683;BME280;29285;52.128;21.060;2024-01-30T07:04:32;102030.73;;;0.91;100.00
43683;BME280;29285;52.128;21.060;2024-01-30T07:09:33;102031.81;;;0.89;100.00
43683;BME280;29285;52.128;21.060;2024-01-30T07:14:34;102033.88;;;0.92;100.00
43683;BME280;29285;52.128;21.060;2024-01-30T07:19:36;102037.89;;;1.01;100.00
43683;BME280;29285;52.128;21.060;2024-01-30T07:24:42;102034.45;;;1.32;100.00
43683;BME280;29285;52.128;21.060;2024-01-30T07:29:45;102037.13;;;1.55;100.00
43683;BME280;29285;52.128;21.060;2024-01-30T07:34:46;102034.73;;;1.73;100.00
43683;BME280;29285;52.128;21.060;2024-01-30T07:39:47;102029.75;;;1.91;100.00
43683;BME280;29285;52.128;21.060;2024-01-30T07:44:48;102028.70;;;2.17;100.00
43683;BME280;29285;52.128;21.060;2024-01-30T07:49:49;102030.95;;;2.33;100.00
43683;BME280;29285;52.128;21.060;2024-01-30T07:54:51;102031.44;;;2.47;100.00
43683;BME280;29285;52.128;21.060;2024-01-30T07:59:52;102025.50;;;2.61;100.00
43683;BME280;29285;52.128;21.060;2024-01-30T08:04:53;102025.86;;;2.82;100.00
43683;BME280;29285;52.128;21.060;2024-01-30T08:09:54;102021.97;;;2.91;100.00
43683;BME280;29285;52.128;21.060;2024-01-30T08:14:55;102019.02;;;2.98;100.00
43683;BME280;29285;52.128;21.060;2024-01-30T08:19:56;102019.22;;;3.19;100.00
43683;BME280;29285;52.128;21.060;2024-01-30T08:24:57;102016.52;;;3.42;100.00
43683;BME280;29285;52.128;21.060;2024-01-30T08:29:58;102013.20;;;3.63;100.00
43683;BME280;29285;52.128;21.060;2024-01-30T08:34:59;102014.39;;;3.66;100.00
43683;BME280;29285;52.128;21.060;2024-01-30T08:40:02;102001.78;;;3.65;100.00
43683;BME280;29285;52.128;21.060;2024-01-30T08:45:05;102002.12;;;3.38;100.00
43683;BME280;29285;52.128;21.060;2024-01-30T08:50:07;102005.42;;;3.26;100.00
43683;BME280;29285;52.128;21.060;2024-01-30T08:55:08;102002.11;;;3.25;100.00
43683;BME280;29285;52.128;21.060;2024-01-30T09:00:09;102006.29;;;3.26;100.00
43683;BME280;29285;52.128;21.060;2024-01-30T09:05:11;102007.13;;;3.22;100.00
43683;BME280;29285;52.128;21.060;2024-01-30T09:10:12;102001.54;;;3.24;100.00
43683;BME280;29285;52.128;21.060;2024-01-30T09:15:13;101999.87;;;3.33;100.00
43683;BME280;29285;52.128;21.060;2024-01-30T09:20:15;102003.30;;;3.46;100.00
43683;BME280;29285;52.128;21.060;2024-01-30T09:25:16;102004.89;;;3.56;100.00
43683;BME280;29285;52.128;21.060;2024-01-30T09:30:17;102001.22;;;3.63;100.00
43683;BME280;29285;52.128;21.060;2024-01-30T09:35:18;101995.23;;;3.73;100.00
43683;BME280;29285;52.128;21.060;2024-01-30T09:40:19;101999.89;;;3.87;100.00
43683;BME280;29285;52.128;21.060;2024-01-30T09:45:25;102002.58;;;3.99;100.00
43683;BME280;29285;52.128;21.060;2024-01-30T09:50:26;101994.48;;;4.12;100.00
43683;BME280;29285;52.128;21.060;2024-01-30T09:55:28;101985.98;;;4.19;100.00
43683;BME280;29285;52.128;21.060;2024-01-30T10:00:29;101982.00;;;4.28;100.00
43683;BME280;29285;52.128;21.060;2024-01-30T10:05:33;101979.71;;;4.36;100.00
43683;BME280;29285;52.128;21.060;2024-01-30T10:10:36;101976.06;;;4.45;100.00
43683;BME280;29285;52.128;21.060;2024-01-30T10:15:37;101973.45;;;4.54;100.00
43683;BME280;29285;52.128;21.060;2024-01-30T10:20:39;101969.51;;;4.64;100.00
43683;BME280;29285;52.128;21.060;2024-01-30T10:25:40;101966.95;;;4.75;100.00
43683;BME280;29285;52.128;21.060;2024-01-30T10:30:42;101956.36;;;4.82;100.00
43683;BME280;29285;52.128;21.060;2024-01-30T10:35:43;101951.07;;;4.89;100.00
43683;BME280;29285;52.128;21.060;2024-01-30T10:40:45;101944.27;;;4.96;100.00
43683;BME280;29285;52.128;21.060;2024-01-30T10:45:49;101938.20;;;5.11;100.00
43683;BME280;29285;52.128;21.060;2024-01-30T10:50:51;101936.23;;;5.31;100.00
43683;BME280;29285;52.128;21.060;2024-01-30T10:55:55;101926.44;;;5.54;100.00
43683;BME280;29285;52.128;21.060;2024-01-30T11:00:56;101920.52;;;5.76;100.00
43683;BME280;29285;52.128;21.060;2024-01-30T11:06:00;101916.48;;;5.84;100.00
43683;BME280;29285;52.128;21.060;2024-01-30T11:11:01;101910.02;;;5.99;100.00
43683;BME280;29285;52.128;21.060;2024-01-30T11:16:04;101907.56;;;6.15;100.00
43683;BME280;29285;52.128;21.060;2024-01-30T11:21:06;101899.82;;;6.49;100.00
43683;BME280;29285;52.128;21.060;2024-01-30T11:26:07;101892.23;;;6.77;100.00
43683;BME280;29285;52.128;21.060;2024-01-30T11:31:18;101884.23;;;6.89;100.00
43683;BME280;29285;52.128;21.060;2024-01-30T11:36:24;101879.84;;;7.15;100.00
43683;BME280;29285;52.128;21.060;2024-01-30T11:41:27;101878.20;;;7.68;100.00
43683;BME280;29285;52.128;21.060;2024-01-30T11:46:28;101876.86;;;7.96;100.00
43683;BME280;29285;52.128;21.060;2024-01-30T11:51:31;101870.86;;;8.07;100.00
43683;BME280;29285;52.128;21.060;2024-01-30T11:56:32;101865.33;;;8.18;100.00
43683;BME280;29285;52.128;21.060;2024-01-30T12:01:34;101859.27;;;8.46;100.00
43683;BME280;29285;52.128;21.060;2024-01-30T12:06:35;101855.04;;;8.70;100.00
43683;BME280;29285;52.128;21.060;2024-01-30T12:11:47;101853.89;;;8.64;100.00
43683;BME280;29285;52.128;21.060;2024-01-30T12:16:48;101844.67;;;8.72;100.00
43683;BME280;29285;52.128;21.060;2024-01-30T12:21:57;101845.23;;;8.85;100.00
43683;BME280;29285;52.128;21.060;2024-01-30T12:27:01;101841.34;;;8.93;100.00
43683;BME280;29285;52.128;21.060;2024-01-30T12:32:02;101842.17;;;9.28;100.00
43683;BME280;29285;52.128;21.060;2024-01-30T12:37:04;101836.36;;;9.76;100.00
43683;BME280;29285;52.128;21.060;2024-01-30T12:42:07;101833.74;;;10.07;100.00
43683;BME280;29285;52.128;21.060;2024-01-30T12:47:09;101827.66;;;10.23;100.00
43683;BME280;29285;52.128;21.060;2024-01-30T12:52:11;101829.02;;;10.60;100.00
43683;BME280;29285;52.128;21.060;2024-01-30T12:57:13;101824.56;;;10.90;100.00
43683;BME280;29285;52.128;21.060;2024-01-30T13:02:14;101822.90;;;11.04;100.00
43683;BME280;29285;52.128;21.060;2024-01-30T13:07:16;101818.67;;;11.24;100.00
43683;BME280;29285;52.128;21.060;2024-01-30T13:12:17;101812.65;;;11.38;100.00
43683;BME280;29285;52.128;21.060;2024-01-30T13:17:18;101807.91;;;11.79;100.00
43683;BME280;29285;52.128;21.060;2024-01-30T13:22:20;101807.95;;;11.97;100.00
43683;BME280;29285;52.128;21.060;2024-01-30T13:27:22;101808.70;;;12.23;100.00
43683;BME280;29285;52.128;21.060;2024-01-30T13:32:23;101810.10;;;12.42;100.00
43683;BME280;29285;52.128;21.060;2024-01-30T13:37:24;101807.59;;;11.90;100.00
43683;BME280;29285;52.128;21.060;2024-01-30T13:42:25;101808.80;;;11.33;100.00
43683;BME280;29285;52.128;21.060;2024-01-30T13:47:26;101813.32;;;10.72;100.00
43683;BME280;29285;52.128;21.060;2024-01-30T13:52:28;101821.02;;;10.01;100.00
43683;BME280;29285;52.128;21.060;2024-01-30T13:57:29;101817.21;;;9.40;100.00
43683;BME280;29285;52.128;21.060;2024-01-30T14:02:33;101817.38;;;8.98;100.00
43683;BME280;29285;52.128;21.060;2024-01-30T14:07:35;101806.58;;;8.81;100.00
43683;BME280;29285;52.128;21.060;2024-01-30T14:12:36;101803.82;;;8.60;100.00
43683;BME280;29285;52.128;21.060;2024-01-30T14:17:37;101801.60;;;8.31;100.00
43683;BME280;29285;52.128;21.060;2024-01-30T14:22:38;101795.50;;;8.18;100.00
43683;BME280;29285;52.128;21.060;2024-01-30T14:27:39;101800.42;;;8.03;100.00
43683;BME280;29285;52.128;21.060;2024-01-30T14:32:40;101800.05;;;7.82;100.00
43683;BME280;29285;52.128;21.060;2024-01-30T14:37:43;101801.32;;;7.58;100.00
43683;BME280;29285;52.128;21.060;2024-01-30T14:42:44;101803.95;;;7.42;100.00
43683;BME280;29285;52.128;21.060;2024-01-30T14:47:45;101802.98;;;7.29;100.00
43683;BME280;29285;52.128;21.060;2024-01-30T14:52:46;101800.17;;;7.18;100.00
43683;BME280;29285;52.128;21.060;2024-01-30T14:57:48;101797.03;;;7.09;100.00
43683;BME280;29285;52.128;21.060;2024-01-30T15:02:49;101795.25;;;6.99;100.00
43683;BME280;29285;52.128;21.060;2024-01-30T15:07:51;101792.98;;;6.90;100.00
43683;BME280;29285;52.128;21.060;2024-01-30T15:12:52;101788.39;;;6.84;100.00
43683;BME280;29285;52.128;21.060;2024-01-30T15:17:52;101783.69;;;6.75;100.00
43683;BME280;29285;52.128;21.060;2024-01-30T15:22:54;101784.68;;;6.65;100.00
43683;BME280;29285;52.128;21.060;2024-01-30T15:27:55;101786.20;;;6.57;100.00
43683;BME280;29285;52.128;21.060;2024-01-30T15:32:56;101789.51;;;6.51;100.00
43683;BME280;29285;52.128;21.060;2024-01-30T15:37:57;101780.74;;;6.44;100.00
43683;BME280;29285;52.128;21.060;2024-01-30T15:42:58;101779.13;;;6.35;100.00
43683;BME280;29285;52.128;21.060;2024-01-30T15:47:59;101784.46;;;6.28;100.00
43683;BME280;29285;52.128;21.060;2024-01-30T15:53:00;101784.12;;;6.20;100.00
43683;BME280;29285;52.128;21.060;2024-01-30T15:58:02;101779.58;;;6.11;100.00
43683;BME280;29285;52.128;21.060;2024-01-30T16:03:04;101773.98;;;6.02;100.00
43683;BME280;29285;52.128;21.060;2024-01-30T16:08:06;101769.76;;;5.92;100.00
43683;BME280;29285;52.128;21.060;2024-01-30T16:13:07;101770.47;;;5.86;100.00
43683;BME280;29285;52.128;21.060;2024-01-30T16:18:08;101772.31;;;5.84;100.00
43683;BME280;29285;52.128;21.060;2024-01-30T16:23:09;101759.52;;;6.16;100.00
43683;BME280;29285;52.128;21.060;2024-01-30T16:28:10;101759.39;;;6.31;100.00
43683;BME280;29285;52.128;21.060;2024-01-30T16:33:11;101757.34;;;6.25;100.00
43683;BME280;29285;52.128;21.060;2024-01-30T16:38:13;101762.98;;;6.22;100.00
43683;BME280;29285;52.128;21.060;2024-01-30T16:43:14;101761.94;;;6.16;100.00
43683;BME280;29285;52.128;21.060;2024-01-30T16:48:15;101760.81;;;6.05;100.00
43683;BME280;29285;52.128;21.060;2024-01-30T16:53:18;101763.04;;;5.93;100.00
43683;BME280;29285;52.128;21.060;2024-01-30T16:58:19;101760.88;;;5.89;100.00
43683;BME280;29285;52.128;21.060;2024-01-30T17:03:21;101757.47;;;5.83;100.00
43683;BME280;29285;52.128;21.060;2024-01-30T17:08:22;101756.46;;;5.78;100.00
43683;BME280;29285;52.128;21.060;2024-01-30T17:13:23;101753.73;;;5.66;100.00
43683;BME280;29285;52.128;21.060;2024-01-30T17:18:24;101745.27;;;5.46;100.00
43683;BME280;29285;52.128;21.060;2024-01-30T17:23:25;101743.02;;;5.27;100.00
43683;BME280;29285;52.128;21.060;2024-01-30T17:28:26;101741.77;;;5.12;100.00
43683;BME280;29285;52.128;21.060;2024-01-30T17:33:28;101740.52;;;5.05;100.00
43683;BME280;29285;52.128;21.060;2024-01-30T17:38:29;101735.70;;;4.99;100.00
43683;BME280;29285;52.128;21.060;2024-01-30T17:43:30;101737.40;;;4.93;100.00
43683;BME280;29285;52.128;21.060;2024-01-30T17:48:31;101731.38;;;4.81;100.00
43683;BME280;29285;52.128;21.060;2024-01-30T17:53:33;101731.30;;;4.72;100.00
43683;BME280;29285;52.128;21.060;2024-01-30T17:58:34;101732.70;;;4.67;100.00
43683;BME280;29285;52.128;21.060;2024-01-30T18:03:35;101730.59;;;4.60;100.00
43683;BME280;29285;52.128;21.060;2024-01-30T18:08:36;101721.87;;;4.56;100.00
43683;BME280;29285;52.128;21.060;2024-01-30T18:13:38;101721.95;;;4.53;100.00
43683;BME280;29285;52.128;21.060;2024-01-30T18:18:39;101727.66;;;4.49;100.00
43683;BME280;29285;52.128;21.060;2024-01-30T18:23:40;101724.54;;;4.43;100.00
43683;BME280;29285;52.128;21.060;2024-01-30T18:28:41;101717.43;;;4.35;100.00
43683;BME280;29285;52.128;21.060;2024-01-30T18:33:43;101716.55;;;4.29;100.00
43683;BME280;29285;52.128;21.060;2024-01-30T18:38:44;101713.20;;;4.26;100.00
43683;BME280;29285;52.128;21.060;2024-01-30T18:43:45;101709.98;;;4.22;100.00
43683;BME280;29285;52.128;21.060;2024-01-30T18:48:46;101713.59;;;4.17;100.00
43683;BME280;29285;52.128;21.060;2024-01-30T18:53:47;101713.45;;;4.13;100.00
43683;BME280;29285;52.128;21.060;2024-01-30T18:58:49;101716.73;;;4.07;100.00
43683;BME280;29285;52.128;21.060;2024-01-30T19:03:50;101718.66;;;4.04;100.00
43683;BME280;29285;52.128;21.060;2024-01-30T19:08:51;101710.20;;;4.02;100.00
43683;BME280;29285;52.128;21.060;2024-01-30T19:13:52;101707.28;;;3.97;100.00
43683;BME280;29285;52.128;21.060;2024-01-30T19:18:55;101716.26;;;3.93;100.00
43683;BME280;29285;52.128;21.060;2024-01-30T19:23:56;101709.94;;;3.89;100.00
43683;BME280;29285;52.128;21.060;2024-01-30T19:28:59;101708.04;;;3.89;100.00
43683;BME280;29285;52.128;21.060;2024-01-30T19:34:00;101698.52;;;3.87;100.00
43683;BME280;29285;52.128;21.060;2024-01-30T19:39:02;101698.65;;;3.85;100.00
43683;BME280;29285;52.128;21.060;2024-01-30T19:44:03;101699.33;;;3.85;100.00
43683;BME280;29285;52.128;21.060;2024-01-30T19:49:03;101697.08;;;3.84;100.00
43683;BME280;29285;52.128;21.060;2024-01-30T19:54:05;101700.50;;;3.84;100.00
43683;BME280;29285;52.128;21.060;2024-01-30T19:59:07;101693.92;;;3.82;100.00
43683;BME280;29285;52.128;21.060;2024-01-30T20:04:08;101689.94;;;3.76;100.00
43683;BME280;29285;52.128;21.060;2024-01-30T20:09:09;101683.51;;;3.74;100.00
43683;BME280;29285;52.128;21.060;2024-01-30T20:14:11;101680.96;;;3.85;100.00
43683;BME280;29285;52.128;21.060;2024-01-30T20:19:12;101679.35;;;3.88;100.00
43683;BME280;29285;52.128;21.060;2024-01-30T20:24:13;101678.79;;;3.87;100.00
43683;BME280;29285;52.128;21.060;2024-01-30T20:29:13;101677.83;;;3.84;100.00
43683;BME280;29285;52.128;21.060;2024-01-30T20:34:14;101673.35;;;3.78;100.00
43683;BME280;29285;52.128;21.060;2024-01-30T20:39:15;101677.53;;;3.69;100.00
43683;BME280;29285;52.128;21.060;2024-01-30T20:44:16;101676.05;;;3.61;100.00
43683;BME280;29285;52.128;21.060;2024-01-30T20:49:18;101673.61;;;3.55;100.00
43683;BME280;29285;52.128;21.060;2024-01-30T20:54:19;101673.55;;;3.53;100.00
43683;BME280;29285;52.128;21.060;2024-01-30T20:59:20;101669.08;;;3.48;100.00
43683;BME280;29285;52.128;21.060;2024-01-30T21:04:21;101664.10;;;3.43;100.00
43683;BME280;29285;52.128;21.060;2024-01-30T21:09:22;101662.32;;;3.36;100.00
43683;BME280;29285;52.128;21.060;2024-01-30T21:14:23;101658.39;;;3.31;100.00
43683;BME280;29285;52.128;21.060;2024-01-30T21:19:25;101660.24;;;3.26;100.00
43683;BME280;29285;52.128;21.060;2024-01-30T21:24:26;101658.48;;;3.24;100.00
43683;BME280;29285;52.128;21.060;2024-01-30T21:29:28;101660.57;;;3.20;100.00
43683;BME280;29285;52.128;21.060;2024-01-30T21:34:29;101654.12;;;3.17;100.00
43683;BME280;29285;52.128;21.060;2024-01-30T21:39:30;101653.86;;;3.15;100.00
43683;BME280;29285;52.128;21.060;2024-01-30T21:44:31;101659.27;;;3.13;100.00
43683;BME280;29285;52.128;21.060;2024-01-30T21:49:32;101663.35;;;3.12;100.00
43683;BME280;29285;52.128;21.060;2024-01-30T21:54:34;101667.75;;;3.10;100.00
43683;BME280;29285;52.128;21.060;2024-01-30T21:59:35;101671.09;;;3.08;100.00
43683;BME280;29285;52.128;21.060;2024-01-30T22:04:37;101673.29;;;3.07;100.00
43683;BME280;29285;52.128;21.060;2024-01-30T22:09:38;101677.10;;;3.02;100.00
43683;BME280;29285;52.128;21.060;2024-01-30T22:14:39;101676.25;;;2.98;100.00
43683;BME280;29285;52.128;21.060;2024-01-30T22:19:40;101675.50;;;2.96;100.00
43683;BME280;29285;52.128;21.060;2024-01-30T22:24:41;101675.34;;;2.97;100.00
43683;BME280;29285;52.128;21.060;2024-01-30T22:29:42;101672.97;;;2.98;100.00
43683;BME280;29285;52.128;21.060;2024-01-30T22:34:43;101670.67;;;2.95;100.00
43683;BME280;29285;52.128;21.060;2024-01-30T22:39:44;101674.38;;;2.94;100.00
43683;BME280;29285;52.128;21.060;2024-01-30T22:44:45;101673.31;;;2.93;100.00
43683;BME280;29285;52.128;21.060;2024-01-30T22:49:47;101672.90;;;2.91;100.00
43683;BME280;29285;52.128;21.060;2024-01-30T22:54:48;101668.77;;;2.90;100.00
43683;BME280;29285;52.128;21.060;2024-01-30T22:59:49;101662.76;;;2.90;100.00
43683;BME280;29285;52.128;21.060;2024-01-30T23:04:50;101661.08;;;2.91;100.00
43683;BME280;29285;52.128;21.060;2024-01-30T23:09:51;101654.16;;;2.89;100.00
43683;BME280;29285;52.128;21.060;2024-01-30T23:14:52;101650.27;;;2.86;100.00
43683;BME280;29285;52.128;21.060;2024-01-30T23:19:53;101643.50;;;2.88;100.00
43683;BME280;29285;52.128;21.060;2024-01-30T23:24:54;101643.54;;;2.90;100.00
43683;BME280;29285;52.128;21.060;2024-01-30T23:29:55;101639.58;;;2.85;100.00
43683;BME280;29285;52.128;21.060;2024-01-30T23:34:56;101637.55;;;2.80;100.00
43683;BME280;29285;52.128;21.060;2024-01-30T23:39:57;101639.89;;;2.74;100.00
43683;BME280;29285;52.128;21.060;2024-01-30T23:44:58;101640.73;;;2.69;100.00
43683;BME280;29285;52.128;21.060;2024-01-30T23:49:59;101636.27;;;2.64;100.00
43683;BME280;29285;52.128;21.060;2024-01-30T23:55:00;101634.16;;;2.58;100.00
